createdAt,value
2023-06-27T00:00:13.391Z,1571.17
2023-06-27T00:01:13.163Z,1571.26
2023-06-27T00:02:13.046Z,1571.07
2023-06-27T00:03:14.086Z,1571.35
2023-06-27T00:04:13.693Z,1571.04
2023-06-27T00:05:13.598Z,1570.98
2023-06-27T00:06:13.357Z,1570.28
2023-06-27T00:07:13.394Z,1570.48
2023-06-27T00:08:13.313Z,1570.90
2023-06-27T00:09:13.221Z,1571.31
2023-06-27T00:10:13.215Z,1571.31
2023-06-27T00:11:13.084Z,1570.69
2023-06-27T00:12:13.137Z,1571.12
2023-06-27T00:13:13.385Z,1570.28
2023-06-27T00:14:13.087Z,1571.11
2023-06-27T00:15:13.206Z,1571.07
2023-06-27T00:16:13.046Z,1570.76
2023-06-27T00:17:12.842Z,1570.11
2023-06-27T00:18:13.636Z,1570.34
2023-06-27T00:19:13.593Z,1570.26
2023-06-27T00:20:13.535Z,1570.41
2023-06-27T00:21:13.692Z,1570.47
2023-06-27T00:22:13.514Z,1570.30
2023-06-27T00:23:13.419Z,1570.10
2023-06-27T00:24:13.262Z,1569.88
2023-06-27T00:25:18.232Z,1570.13
2023-06-27T00:26:13.116Z,1569.88
2023-06-27T00:27:12.948Z,1570.32
2023-06-27T00:28:12.793Z,1570.10
2023-06-27T00:29:13.706Z,1569.83
2023-06-27T00:30:13.539Z,1569.59
2023-06-27T00:31:13.420Z,1569.33
2023-06-27T00:32:13.394Z,1569.28
2023-06-27T00:33:13.277Z,1569.93
2023-06-27T00:34:13.390Z,1569.98
2023-06-27T00:35:13.227Z,1569.79
2023-06-27T00:36:13.279Z,1569.84
2023-06-27T00:37:13.377Z,1569.56
2023-06-27T00:38:13.208Z,1569.85
2023-06-27T00:39:13.058Z,1569.74
2023-06-27T00:40:13.066Z,1569.85
2023-06-27T00:41:12.945Z,1569.55
2023-06-27T00:42:12.736Z,1569.75
2023-06-27T00:43:13.750Z,1569.47
2023-06-27T00:44:13.763Z,1569.58
2023-06-27T00:45:13.747Z,1569.58
2023-06-27T00:46:13.561Z,1569.89
2023-06-27T00:47:13.364Z,1569.72
2023-06-27T00:48:13.500Z,1569.68
2023-06-27T00:49:13.682Z,1569.96
2023-06-27T00:50:13.752Z,1569.87
2023-06-27T00:51:13.493Z,1569.62
2023-06-27T00:52:13.445Z,1569.51
2023-06-27T00:53:13.333Z,1568.79
2023-06-27T00:54:13.064Z,1568.95
2023-06-27T00:55:12.883Z,1569.06
2023-06-27T00:56:13.878Z,1568.84
2023-06-27T00:57:13.788Z,1569.11
2023-06-27T00:58:13.553Z,1568.82
2023-06-27T00:59:13.580Z,1568.50
2023-06-27T01:00:13.369Z,1568.99
2023-06-27T01:01:13.181Z,1569.31
2023-06-27T01:02:13.005Z,1569.01
2023-06-27T01:03:13.038Z,1569.02
2023-06-27T01:04:12.986Z,1568.90
2023-06-27T01:05:12.754Z,1569.09
2023-06-27T01:06:13.585Z,1569.20
2023-06-27T01:07:13.411Z,1569.10
2023-06-27T01:08:13.264Z,1569.10
2023-06-27T01:09:13.016Z,1569.24
2023-06-27T01:10:12.904Z,1569.00
2023-06-27T01:11:13.209Z,1568.94
2023-06-27T01:12:13.292Z,1569.02
2023-06-27T01:13:13.163Z,1569.18
2023-06-27T01:14:13.243Z,1569.03
2023-06-27T01:15:13.062Z,1569.06
2023-06-27T01:16:12.914Z,1569.00
2023-06-27T01:17:12.666Z,1569.07
2023-06-27T01:18:13.561Z,1569.13
2023-06-27T01:19:13.535Z,1569.16
2023-06-27T01:20:13.618Z,1568.99
2023-06-27T01:21:13.498Z,1568.94
2023-06-27T01:22:13.459Z,1568.72
2023-06-27T01:23:13.310Z,1568.72
2023-06-27T01:24:13.112Z,1568.76
2023-06-27T01:25:12.956Z,1568.63
2023-06-27T01:26:12.826Z,1568.33
2023-06-27T01:27:13.685Z,1568.74
2023-06-27T01:28:13.391Z,1568.81
2023-06-27T01:29:13.204Z,1568.95
2023-06-27T01:30:12.995Z,1569.02
2023-06-27T01:31:13.033Z,1568.86
2023-06-27T01:32:12.969Z,1569.06
2023-06-27T01:33:12.783Z,1568.56
2023-06-27T01:34:13.672Z,1569.20
2023-06-27T01:35:13.578Z,1569.08
2023-06-27T01:36:13.341Z,1569.15
2023-06-27T01:37:13.208Z,1568.50
2023-06-27T01:38:13.026Z,1568.46
2023-06-27T01:39:12.922Z,1568.52
2023-06-27T01:40:12.903Z,1568.51
2023-06-27T01:41:12.953Z,1568.17
2023-06-27T01:42:12.826Z,1568.45
2023-06-27T01:43:13.757Z,1568.63
2023-06-27T01:44:13.661Z,1568.59
2023-06-27T01:45:13.581Z,1568.18
2023-06-27T01:46:13.577Z,1568.30
2023-06-27T01:47:13.364Z,1568.32
2023-06-27T01:48:13.150Z,1568.65
2023-06-27T01:49:13.112Z,1568.77
2023-06-27T01:50:13.102Z,1568.73
2023-06-27T01:51:12.915Z,1568.91
2023-06-27T01:52:12.887Z,1569.18
2023-06-27T01:53:13.895Z,1568.87
2023-06-27T01:54:14.132Z,1568.98
2023-06-27T01:55:13.053Z,1568.80
2023-06-27T01:56:12.884Z,1568.73
2023-06-27T01:57:12.861Z,1568.74
2023-06-27T01:58:13.871Z,1568.74
2023-06-27T01:59:13.029Z,1569.02
2023-06-27T02:00:12.955Z,1569.05
2023-06-27T02:01:13.197Z,1568.73
2023-06-27T02:02:13.094Z,1568.88
2023-06-27T02:03:13.070Z,1568.89
2023-06-27T02:04:12.955Z,1568.90
2023-06-27T02:05:13.044Z,1568.51
2023-06-27T02:06:12.906Z,1568.73
2023-06-27T02:07:12.745Z,1568.77
2023-06-27T02:08:13.506Z,1569.29
2023-06-27T02:09:13.757Z,1568.26
2023-06-27T02:10:13.567Z,1568.85
2023-06-27T02:11:13.791Z,1568.59
2023-06-27T02:12:13.657Z,1568.75
2023-06-27T02:13:13.377Z,1568.99
2023-06-27T02:14:13.237Z,1569.06
2023-06-27T02:15:13.107Z,1568.84
2023-06-27T02:16:13.225Z,1568.77
2023-06-27T02:17:13.228Z,1568.79
2023-06-27T02:18:13.097Z,1568.89
2023-06-27T02:19:13.047Z,1569.01
2023-06-27T02:20:12.975Z,1568.86
2023-06-27T02:21:13.084Z,1568.49
2023-06-27T02:22:12.989Z,1568.49
2023-06-27T02:23:12.859Z,1568.87
2023-06-27T02:24:13.810Z,1568.80
2023-06-27T02:25:13.691Z,1568.75
2023-06-27T02:26:13.535Z,1568.81
2023-06-27T02:27:13.717Z,1569.23
2023-06-27T02:28:13.560Z,1568.89
2023-06-27T02:29:13.577Z,1569.02
2023-06-27T02:30:13.408Z,1568.72
2023-06-27T02:31:13.351Z,1568.72
2023-06-27T02:32:13.466Z,1568.27
2023-06-27T02:33:13.338Z,1568.77
2023-06-27T02:34:13.157Z,1569.25
2023-06-27T02:35:13.076Z,1569.24
2023-06-27T02:36:12.973Z,1569.54
2023-06-27T02:37:12.740Z,1569.23
2023-06-27T02:38:13.500Z,1569.16
2023-06-27T02:39:13.749Z,1568.67
2023-06-27T02:40:13.601Z,1569.29
2023-06-27T02:41:13.811Z,1568.96
2023-06-27T02:42:13.599Z,1569.37
2023-06-27T02:43:13.450Z,1568.81
2023-06-27T02:44:13.344Z,1568.93
2023-06-27T02:45:13.340Z,1568.68
2023-06-27T02:46:13.358Z,1568.11
2023-06-27T02:47:13.226Z,1568.70
2023-06-27T02:48:13.110Z,1569.08
2023-06-27T02:49:13.085Z,1568.67
2023-06-27T02:50:12.905Z,1568.75
2023-06-27T02:51:12.815Z,1568.37
2023-06-27T02:52:12.789Z,1568.91
2023-06-27T02:53:18.855Z,1568.96
2023-06-27T02:54:13.039Z,1568.18
2023-06-27T02:55:12.969Z,1568.20
2023-06-27T02:56:13.072Z,1568.31
2023-06-27T02:57:12.886Z,1568.93
2023-06-27T02:58:13.843Z,1568.84
2023-06-27T02:59:13.851Z,1568.70
2023-06-27T03:00:13.650Z,1569.07
2023-06-27T03:01:13.615Z,1568.98
2023-06-27T03:02:13.379Z,1568.93
2023-06-27T03:03:13.321Z,1568.85
2023-06-27T03:04:18.553Z,1568.17
2023-06-27T03:05:13.740Z,1568.90
2023-06-27T03:06:13.719Z,1568.42
2023-06-27T03:07:13.487Z,1568.90
2023-06-27T03:08:13.483Z,1568.59
2023-06-27T03:09:13.407Z,1568.24
2023-06-27T03:10:13.310Z,1568.77
2023-06-27T03:11:13.210Z,1568.30
2023-06-27T03:12:13.060Z,1568.36
2023-06-27T03:13:13.090Z,1568.31
2023-06-27T03:14:12.907Z,1568.37
2023-06-27T03:15:12.914Z,1568.53
2023-06-27T03:16:13.143Z,1568.01
2023-06-27T03:17:13.012Z,1568.11
2023-06-27T03:18:12.898Z,1568.55
2023-06-27T03:19:12.897Z,1569.30
2023-06-27T03:20:12.718Z,1569.28
2023-06-27T03:21:13.579Z,1569.42
2023-06-27T03:22:13.471Z,1568.74
2023-06-27T03:23:13.344Z,1568.08
2023-06-27T03:24:13.470Z,1568.72
2023-06-27T03:25:13.444Z,1569.01
2023-06-27T03:26:13.635Z,1569.03
2023-06-27T03:27:13.489Z,1569.28
2023-06-27T03:28:13.255Z,1569.01
2023-06-27T03:29:12.977Z,1569.53
2023-06-27T03:30:12.791Z,1569.70
2023-06-27T03:31:13.606Z,1568.67
2023-06-27T03:32:13.512Z,1568.99
2023-06-27T03:33:13.448Z,1569.52
2023-06-27T03:34:13.418Z,1569.17
2023-06-27T03:35:13.276Z,1569.92
2023-06-27T03:36:13.081Z,1569.86
2023-06-27T03:37:13.302Z,1570.03
2023-06-27T03:38:13.137Z,1570.18
2023-06-27T03:39:12.967Z,1569.97
2023-06-27T03:40:12.751Z,1569.34
2023-06-27T03:41:13.854Z,1568.95
2023-06-27T03:42:13.787Z,1569.62
2023-06-27T03:43:13.866Z,1569.18
2023-06-27T03:44:14.084Z,1569.76
2023-06-27T03:45:12.897Z,1569.70
2023-06-27T03:46:13.007Z,1569.23
2023-06-27T03:47:12.869Z,1569.30
2023-06-27T03:48:13.744Z,1569.30
2023-06-27T03:49:13.652Z,1569.38
2023-06-27T03:50:13.511Z,1569.41
2023-06-27T03:51:13.571Z,1569.73
2023-06-27T03:52:13.400Z,1569.38
2023-06-27T03:53:13.241Z,1569.56
2023-06-27T03:54:13.271Z,1569.93
2023-06-27T03:55:37.408Z,1570.10
2023-06-27T03:56:13.358Z,1569.51
2023-06-27T03:57:13.220Z,1569.44
2023-06-27T03:58:13.385Z,1569.72
2023-06-27T03:59:13.299Z,1570.49
2023-06-27T04:00:13.028Z,1570.21
2023-06-27T04:01:12.882Z,1570.18
2023-06-27T04:02:13.868Z,1570.80
2023-06-27T04:03:13.721Z,1571.11
2023-06-27T04:04:15.227Z,1570.75
2023-06-27T04:05:13.717Z,1570.87
2023-06-27T04:06:13.723Z,1570.19
2023-06-27T04:07:13.656Z,1569.91
2023-06-27T04:08:12.973Z,1569.65
2023-06-27T04:09:13.101Z,1570.14
2023-06-27T04:10:12.929Z,1569.97
2023-06-27T04:11:12.874Z,1569.91
2023-06-27T04:12:13.789Z,1569.53
2023-06-27T04:13:13.780Z,1569.79
2023-06-27T04:14:13.702Z,1569.80
2023-06-27T04:15:13.582Z,1570.12
2023-06-27T04:16:13.722Z,1569.80
2023-06-27T04:17:13.616Z,1570.14
2023-06-27T04:18:13.474Z,1569.80
2023-06-27T04:19:13.281Z,1569.34
2023-06-27T04:20:13.201Z,1569.66
2023-06-27T04:21:13.256Z,1570.19
2023-06-27T04:22:13.054Z,1570.12
2023-06-27T04:23:12.882Z,1570.36
2023-06-27T04:24:12.866Z,1570.08
2023-06-27T04:25:13.974Z,1570.38
2023-06-27T04:26:12.816Z,1569.85
2023-06-27T04:27:13.889Z,1569.66
2023-06-27T04:28:12.753Z,1570.14
2023-06-27T04:29:13.764Z,1570.33
2023-06-27T04:30:13.830Z,1570.43
2023-06-27T04:31:13.671Z,1570.38
2023-06-27T04:32:13.476Z,1569.75
2023-06-27T04:33:13.457Z,1570.85
2023-06-27T04:34:13.373Z,1570.81
2023-06-27T04:35:13.307Z,1570.14
2023-06-27T04:36:13.437Z,1570.76
2023-06-27T04:37:13.358Z,1570.57
2023-06-27T04:38:13.990Z,1570.73
2023-06-27T04:39:12.971Z,1570.61
2023-06-27T04:40:12.991Z,1570.65
2023-06-27T04:41:12.823Z,1570.50
2023-06-27T04:42:13.699Z,1571.05
2023-06-27T04:43:13.679Z,1570.91
2023-06-27T04:44:13.427Z,1571.44
2023-06-27T04:45:12.712Z,1571.48
2023-06-27T04:46:13.544Z,1571.04
2023-06-27T04:47:13.680Z,1571.33
2023-06-27T04:48:13.625Z,1571.97
2023-06-27T04:49:13.445Z,1572.24
2023-06-27T04:50:13.302Z,1572.00
2023-06-27T04:51:13.184Z,1571.77
2023-06-27T04:52:13.116Z,1571.78
2023-06-27T04:53:13.002Z,1572.02
2023-06-27T04:54:12.924Z,1572.02
2023-06-27T04:55:12.833Z,1571.81
2023-06-27T04:56:13.815Z,1571.78
2023-06-27T04:57:13.674Z,1571.67
2023-06-27T04:58:13.479Z,1571.96
2023-06-27T04:59:14.329Z,1571.64
2023-06-27T05:00:13.219Z,1572.28
2023-06-27T05:01:13.076Z,1573.20
2023-06-27T05:02:13.037Z,1572.99
2023-06-27T05:03:12.977Z,1573.03
2023-06-27T05:04:12.954Z,1572.58
2023-06-27T05:05:12.925Z,1573.11
2023-06-27T05:06:12.833Z,1572.67
2023-06-27T05:07:13.726Z,1572.26
2023-06-27T05:08:13.632Z,1573.43
2023-06-27T05:09:13.884Z,1573.31
2023-06-27T05:10:14.176Z,1573.42
2023-06-27T05:11:13.009Z,1574.42
2023-06-27T05:12:13.250Z,1573.49
2023-06-27T05:13:13.238Z,1573.29
2023-06-27T05:14:13.099Z,1572.74
2023-06-27T05:15:12.966Z,1573.24
2023-06-27T05:16:13.114Z,1573.42
2023-06-27T05:17:12.934Z,1573.09
2023-06-27T05:18:12.781Z,1572.64
2023-06-27T05:19:13.937Z,1573.55
2023-06-27T05:20:12.880Z,1573.04
2023-06-27T05:21:12.723Z,1573.07
2023-06-27T05:22:13.526Z,1572.81
2023-06-27T05:23:18.820Z,1572.99
2023-06-27T05:24:13.694Z,1573.64
2023-06-27T05:25:13.492Z,1573.95
2023-06-27T05:26:13.392Z,1573.65
2023-06-27T05:27:13.272Z,1573.97
2023-06-27T05:28:13.130Z,1573.90
2023-06-27T05:29:18.051Z,1574.29
2023-06-27T05:30:39.201Z,1574.61
2023-06-27T05:31:13.544Z,1574.60
2023-06-27T05:32:13.490Z,1574.40
2023-06-27T05:33:13.383Z,1574.06
2023-06-27T05:34:13.114Z,1574.01
2023-06-27T05:35:13.059Z,1574.04
2023-06-27T05:36:12.981Z,1575.21
2023-06-27T05:37:12.915Z,1575.10
2023-06-27T05:38:12.672Z,1575.41
2023-06-27T05:39:13.559Z,1574.54
2023-06-27T05:40:13.635Z,1575.20
2023-06-27T05:41:13.450Z,1574.54
2023-06-27T05:42:13.666Z,1573.82
2023-06-27T05:43:13.652Z,1573.98
2023-06-27T05:44:13.560Z,1573.42
2023-06-27T05:45:14.141Z,1574.84
2023-06-27T05:46:13.626Z,1574.86
2023-06-27T05:47:13.476Z,1575.78
2023-06-27T05:48:13.388Z,1575.82
2023-06-27T05:49:13.228Z,1575.84
2023-06-27T05:50:13.043Z,1576.86
2023-06-27T05:51:12.951Z,1575.42
2023-06-27T05:52:12.840Z,1574.84
2023-06-27T05:53:13.678Z,1574.62
2023-06-27T05:54:13.912Z,1575.29
2023-06-27T05:55:12.760Z,1573.99
2023-06-27T05:56:13.679Z,1574.56
2023-06-27T05:57:13.874Z,1574.24
2023-06-27T05:58:13.974Z,1574.54
2023-06-27T05:59:12.906Z,1574.62
2023-06-27T06:00:12.971Z,1574.91
2023-06-27T06:01:13.029Z,1574.22
2023-06-27T06:02:13.322Z,1575.03
2023-06-27T06:03:13.226Z,1574.75
2023-06-27T06:04:13.189Z,1574.46
2023-06-27T06:05:13.054Z,1574.44
2023-06-27T06:06:12.949Z,1574.36
2023-06-27T06:07:12.874Z,1573.87
2023-06-27T06:08:12.910Z,1573.85
2023-06-27T06:09:13.059Z,1573.65
2023-06-27T06:10:12.994Z,1574.16
2023-06-27T06:11:13.016Z,1573.76
2023-06-27T06:12:13.150Z,1573.90
2023-06-27T06:13:18.191Z,1573.88
2023-06-27T06:14:13.164Z,1573.89
2023-06-27T06:15:13.273Z,1573.81
2023-06-27T06:16:13.303Z,1573.89
2023-06-27T06:17:13.161Z,1574.36
2023-06-27T06:18:13.085Z,1574.73
2023-06-27T06:19:13.283Z,1574.56
2023-06-27T06:20:13.233Z,1573.87
2023-06-27T06:21:13.080Z,1574.47
2023-06-27T06:22:12.982Z,1574.03
2023-06-27T06:23:13.118Z,1573.38
2023-06-27T06:24:13.109Z,1573.66
2023-06-27T06:25:12.939Z,1573.26
2023-06-27T06:26:12.917Z,1573.66
2023-06-27T06:27:12.794Z,1573.81
2023-06-27T06:28:13.754Z,1573.79
2023-06-27T06:29:13.896Z,1573.88
2023-06-27T06:30:12.810Z,1573.25
2023-06-27T06:31:13.739Z,1572.73
2023-06-27T06:32:13.601Z,1573.02
2023-06-27T06:33:13.651Z,1573.53
2023-06-27T06:34:13.604Z,1574.31
2023-06-27T06:35:13.442Z,1574.13
2023-06-27T06:36:13.334Z,1573.05
2023-06-27T06:37:13.432Z,1572.91
2023-06-27T06:38:13.329Z,1573.27
2023-06-27T06:39:13.252Z,1574.14
2023-06-27T06:40:13.193Z,1574.57
2023-06-27T06:41:13.055Z,1573.23
2023-06-27T06:42:13.297Z,1572.65
2023-06-27T06:43:13.236Z,1572.95
2023-06-27T06:44:13.233Z,1572.51
2023-06-27T06:45:14.449Z,1572.74
2023-06-27T06:46:13.554Z,1572.59
2023-06-27T06:47:13.570Z,1573.29
2023-06-27T06:48:13.530Z,1573.54
2023-06-27T06:49:13.456Z,1573.74
2023-06-27T06:50:15.091Z,1573.10
2023-06-27T06:51:13.136Z,1573.57
2023-06-27T06:52:13.086Z,1573.43
2023-06-27T06:53:13.239Z,1571.95
2023-06-27T06:54:13.237Z,1572.60
2023-06-27T06:55:13.053Z,1573.42
2023-06-27T06:56:13.019Z,1573.36
2023-06-27T06:57:12.977Z,1573.50
2023-06-27T06:58:12.767Z,1573.82
2023-06-27T06:59:13.539Z,1572.26
2023-06-27T07:00:13.398Z,1573.13
2023-06-27T07:01:13.248Z,1573.38
2023-06-27T07:02:13.165Z,1573.29
2023-06-27T07:03:13.076Z,1573.63
2023-06-27T07:04:12.997Z,1574.09
2023-06-27T07:05:12.908Z,1573.92
2023-06-27T07:06:12.989Z,1573.82
2023-06-27T07:07:13.166Z,1574.42
2023-06-27T07:08:13.195Z,1574.06
2023-06-27T07:09:13.072Z,1574.61
2023-06-27T07:10:13.095Z,1574.17
2023-06-27T07:11:12.970Z,1574.45
2023-06-27T07:12:12.941Z,1574.86
2023-06-27T07:13:12.773Z,1573.90
2023-06-27T07:14:13.704Z,1574.16
2023-06-27T07:15:13.730Z,1575.13
2023-06-27T07:16:13.602Z,1575.69
2023-06-27T07:17:13.320Z,1575.25
2023-06-27T07:18:13.278Z,1575.70
2023-06-27T07:19:13.267Z,1575.50
2023-06-27T07:20:13.138Z,1574.88
2023-06-27T07:21:12.998Z,1575.57
2023-06-27T07:22:12.822Z,1574.57
2023-06-27T07:23:13.730Z,1574.63
2023-06-27T07:24:13.609Z,1575.69
2023-06-27T07:25:13.607Z,1576.74
2023-06-27T07:26:13.724Z,1576.81
2023-06-27T07:27:13.587Z,1576.65
2023-06-27T07:28:15.000Z,1576.75
2023-06-27T07:29:12.875Z,1577.56
2023-06-27T07:30:12.660Z,1577.46
2023-06-27T07:31:13.712Z,1576.43
2023-06-27T07:32:13.963Z,1576.54
2023-06-27T07:33:12.910Z,1577.01
2023-06-27T07:34:13.146Z,1577.30
2023-06-27T07:35:13.278Z,1577.85
2023-06-27T07:36:13.146Z,1577.90
2023-06-27T07:37:13.195Z,1578.73
2023-06-27T07:38:13.331Z,1578.04
2023-06-27T07:39:46.252Z,1577.57
2023-06-27T07:40:13.072Z,1577.56
2023-06-27T07:41:13.169Z,1578.24
2023-06-27T07:42:13.069Z,1578.78
2023-06-27T07:43:13.149Z,1578.86
2023-06-27T07:44:13.091Z,1578.90
2023-06-27T07:45:13.076Z,1579.14
2023-06-27T07:46:12.895Z,1579.67
2023-06-27T07:47:13.002Z,1579.40
2023-06-27T07:48:12.918Z,1579.59
2023-06-27T07:49:15.096Z,1579.14
2023-06-27T07:50:12.894Z,1578.40
2023-06-27T07:51:12.725Z,1578.24
2023-06-27T07:52:13.746Z,1578.72
2023-06-27T07:53:14.651Z,1578.19
2023-06-27T07:54:14.997Z,1579.32
2023-06-27T07:55:13.071Z,1579.98
2023-06-27T07:56:12.959Z,1579.45
2023-06-27T07:57:13.137Z,1578.93
2023-06-27T07:58:13.164Z,1578.85
2023-06-27T07:59:13.260Z,1578.36
2023-06-27T08:00:13.085Z,1578.82
2023-06-27T08:01:13.120Z,1578.74
2023-06-27T08:02:13.149Z,1578.62
2023-06-27T08:03:13.495Z,1578.16
2023-06-27T08:04:13.604Z,1579.79
2023-06-27T08:05:13.738Z,1579.91
2023-06-27T08:06:13.680Z,1579.11
2023-06-27T08:07:14.240Z,1579.07
2023-06-27T08:08:13.443Z,1578.55
2023-06-27T08:09:13.540Z,1579.18
2023-06-27T08:10:13.824Z,1578.92
2023-06-27T08:11:13.685Z,1579.37
2023-06-27T08:12:13.599Z,1579.61
2023-06-27T08:13:13.541Z,1580.21
2023-06-27T08:14:13.466Z,1580.77
2023-06-27T08:15:13.316Z,1580.48
2023-06-27T08:16:13.292Z,1579.92
2023-06-27T08:17:13.198Z,1580.52
2023-06-27T08:18:13.290Z,1580.82
2023-06-27T08:19:13.312Z,1580.95
2023-06-27T08:20:13.398Z,1581.08
2023-06-27T08:21:13.277Z,1580.57
2023-06-27T08:22:13.111Z,1580.87
2023-06-27T08:23:13.035Z,1580.23
2023-06-27T08:24:12.961Z,1580.22
2023-06-27T08:25:13.988Z,1580.84
2023-06-27T08:26:12.832Z,1580.05
2023-06-27T08:27:13.842Z,1580.16
2023-06-27T08:28:14.049Z,1580.81
2023-06-27T08:29:13.278Z,1582.22
2023-06-27T08:30:13.194Z,1583.19
2023-06-27T08:31:13.101Z,1581.83
2023-06-27T08:32:13.137Z,1581.49
2023-06-27T08:33:13.032Z,1580.36
2023-06-27T08:34:12.907Z,1580.80
2023-06-27T08:35:12.769Z,1581.28
2023-06-27T08:36:13.638Z,1581.30
2023-06-27T08:37:13.586Z,1581.27
2023-06-27T08:38:13.404Z,1582.18
2023-06-27T08:39:13.323Z,1582.20
2023-06-27T08:40:13.441Z,1582.20
2023-06-27T08:41:13.623Z,1582.30
2023-06-27T08:42:13.725Z,1581.75
2023-06-27T08:43:13.601Z,1582.31
2023-06-27T08:44:13.471Z,1583.33
2023-06-27T08:45:13.328Z,1583.10
2023-06-27T08:46:13.307Z,1583.17
2023-06-27T08:47:13.587Z,1583.96
2023-06-27T08:48:13.626Z,1584.30
2023-06-27T08:49:18.582Z,1584.85
2023-06-27T08:50:13.601Z,1584.88
2023-06-27T08:51:14.051Z,1583.22
2023-06-27T08:52:13.075Z,1583.41
2023-06-27T08:53:13.299Z,1583.77
2023-06-27T08:54:13.211Z,1583.78
2023-06-27T08:55:13.012Z,1582.56
2023-06-27T08:56:12.927Z,1583.00
2023-06-27T08:57:18.071Z,1582.41
2023-06-27T08:58:13.014Z,1583.12
2023-06-27T08:59:18.075Z,1584.28
2023-06-27T09:00:13.013Z,1584.51
2023-06-27T09:01:13.030Z,1585.48
2023-06-27T09:02:13.426Z,1584.86
2023-06-27T09:03:13.619Z,1583.93
2023-06-27T09:04:13.752Z,1584.12
2023-06-27T09:05:14.720Z,1584.52
2023-06-27T09:06:13.547Z,1585.65
2023-06-27T09:07:13.832Z,1585.15
2023-06-27T09:08:12.928Z,1583.19
2023-06-27T09:09:12.755Z,1582.89
2023-06-27T09:10:13.895Z,1583.94
2023-06-27T09:11:13.013Z,1583.25
2023-06-27T09:12:13.293Z,1583.52
2023-06-27T09:13:13.161Z,1582.27
2023-06-27T09:14:13.072Z,1583.04
2023-06-27T09:15:12.945Z,1583.00
2023-06-27T09:16:13.157Z,1583.89
2023-06-27T09:17:18.249Z,1583.31
2023-06-27T09:18:13.082Z,1584.50
2023-06-27T09:19:13.138Z,1585.96
2023-06-27T09:20:13.132Z,1584.99
2023-06-27T09:21:13.125Z,1586.09
2023-06-27T09:22:13.424Z,1586.97
2023-06-27T09:23:13.228Z,1586.81
2023-06-27T09:24:13.104Z,1585.30
2023-06-27T09:25:12.935Z,1586.00
2023-06-27T09:26:13.041Z,1584.77
2023-06-27T09:27:12.848Z,1584.20
2023-06-27T09:28:13.644Z,1584.66
2023-06-27T09:29:13.490Z,1582.57
2023-06-27T09:30:13.226Z,1581.29
2023-06-27T09:31:13.016Z,1582.12
2023-06-27T09:32:12.930Z,1583.78
2023-06-27T09:33:12.773Z,1583.28
2023-06-27T09:34:13.625Z,1583.31
2023-06-27T09:35:13.416Z,1583.34
2023-06-27T09:36:13.460Z,1585.27
2023-06-27T09:39:13.230Z,1586.97
2023-06-27T09:40:13.140Z,1588.34
2023-06-27T09:41:13.154Z,1589.67
2023-06-27T09:42:13.257Z,1588.63
2023-06-27T09:43:13.236Z,1586.68
2023-06-27T09:44:13.005Z,1589.71
2023-06-27T09:45:12.945Z,1589.32
2023-06-27T09:46:12.991Z,1589.09
2023-06-27T09:47:12.879Z,1588.38
2023-06-27T09:48:13.838Z,1593.14
2023-06-27T09:49:12.897Z,1592.06
2023-06-27T09:50:12.889Z,1590.20
2023-06-27T09:51:13.903Z,1588.80
2023-06-27T09:52:12.757Z,1587.99
2023-06-27T09:53:13.633Z,1586.23
2023-06-27T09:54:16.774Z,1585.88
2023-06-27T09:55:13.521Z,1586.68
2023-06-27T09:56:13.635Z,1584.68
2023-06-27T09:57:13.810Z,1584.68
2023-06-27T09:58:14.183Z,1586.42
2023-06-27T09:59:21.928Z,1586.66
2023-06-27T10:00:12.807Z,1586.19
2023-06-27T10:01:14.279Z,1588.95
2023-06-27T10:02:13.255Z,1589.00
2023-06-27T10:03:14.091Z,1590.39
2023-06-27T10:04:15.313Z,1589.97
2023-06-27T10:05:15.655Z,1589.76
2023-06-27T10:06:14.244Z,1588.87
2023-06-27T10:07:13.602Z,1587.51
2023-06-27T10:08:13.496Z,1587.09
2023-06-27T10:09:13.556Z,1586.73
2023-06-27T10:10:13.360Z,1586.56
2023-06-27T10:11:13.733Z,1585.77
2023-06-27T10:12:13.738Z,1587.62
2023-06-27T10:13:13.552Z,1589.47
2023-06-27T10:14:13.588Z,1591.44
2023-06-27T10:15:13.405Z,1590.09
2023-06-27T10:16:13.277Z,1588.11
2023-06-27T10:17:13.149Z,1586.85
2023-06-27T10:18:12.981Z,1584.23
2023-06-27T10:19:12.958Z,1585.80
2023-06-27T10:20:12.805Z,1585.57
2023-06-27T10:21:13.719Z,1587.35
2023-06-27T10:22:13.694Z,1590.91
2023-06-27T10:24:13.358Z,1588.54
2023-06-27T10:25:13.208Z,1589.67
2023-06-27T10:26:13.787Z,1588.32
2023-06-27T10:27:13.731Z,1588.42
2023-06-27T10:28:13.591Z,1587.69
2023-06-27T10:29:13.393Z,1586.03
2023-06-27T10:30:13.189Z,1585.61
2023-06-27T10:31:13.007Z,1586.00
2023-06-27T10:32:12.941Z,1587.38
2023-06-27T10:33:12.927Z,1587.25
2023-06-27T10:34:12.810Z,1586.82
2023-06-27T10:35:14.190Z,1587.27
2023-06-27T10:36:14.284Z,1587.64
2023-06-27T10:37:13.426Z,1589.27
2023-06-27T10:38:13.431Z,1587.06
2023-06-27T10:39:13.419Z,1588.52
2023-06-27T10:40:13.221Z,1587.54
2023-06-27T10:41:13.185Z,1587.15
2023-06-27T10:42:13.707Z,1587.29
2023-06-27T10:43:13.663Z,1588.35
2023-06-27T10:44:13.461Z,1591.90
2023-06-27T10:45:13.255Z,1593.46
2023-06-27T10:46:13.205Z,1590.65
2023-06-27T10:47:13.141Z,1591.93
2023-06-27T10:48:13.123Z,1592.22
2023-06-27T10:49:13.077Z,1590.43
2023-06-27T10:50:13.065Z,1589.62
2023-06-27T10:51:12.875Z,1591.08
2023-06-27T10:52:12.692Z,1594.10
2023-06-27T10:53:13.674Z,1591.61
2023-06-27T10:54:13.421Z,1591.85
2023-06-27T10:55:13.216Z,1591.51
2023-06-27T10:56:13.068Z,1589.56
2023-06-27T10:57:13.166Z,1589.98
2023-06-27T10:58:13.026Z,1589.47
2023-06-27T10:59:12.938Z,1589.45
2023-06-27T11:00:12.867Z,1589.59
2023-06-27T11:01:13.743Z,1589.78
2023-06-27T11:02:13.621Z,1589.49
2023-06-27T11:03:13.914Z,1589.09
2023-06-27T11:04:13.166Z,1588.47
2023-06-27T11:05:13.467Z,1586.71
2023-06-27T11:06:13.545Z,1585.94
2023-06-27T11:07:13.576Z,1585.17
2023-06-27T11:08:14.014Z,1586.39
2023-06-27T11:09:12.975Z,1586.69
2023-06-27T11:10:12.886Z,1587.18
2023-06-27T11:11:13.032Z,1588.92
2023-06-27T11:12:13.124Z,1589.79
2023-06-27T11:13:13.334Z,1589.57
2023-06-27T11:14:13.593Z,1589.48
2023-06-27T11:15:13.522Z,1588.96
2023-06-27T11:16:12.915Z,1589.58
2023-06-27T11:17:12.869Z,1589.82
2023-06-27T11:18:13.882Z,1588.71
2023-06-27T11:19:19.984Z,1588.50
2023-06-27T11:20:13.760Z,1588.66
2023-06-27T11:21:14.498Z,1588.04
2023-06-27T11:22:13.601Z,1587.59
2023-06-27T11:23:13.473Z,1587.19
2023-06-27T11:24:13.409Z,1588.20
2023-06-27T11:25:13.207Z,1589.61
2023-06-27T11:26:13.148Z,1588.15
2023-06-27T11:27:13.096Z,1587.45
2023-06-27T11:28:12.993Z,1587.59
2023-06-27T11:29:13.016Z,1587.33
2023-06-27T11:30:12.848Z,1585.09
2023-06-27T11:31:13.777Z,1585.81
2023-06-27T11:32:13.684Z,1588.64
2023-06-27T11:33:13.761Z,1588.85
2023-06-27T11:34:13.770Z,1588.34
2023-06-27T11:35:13.603Z,1588.71
2023-06-27T11:36:13.559Z,1590.27
2023-06-27T11:37:19.116Z,1590.31
2023-06-27T11:38:13.259Z,1590.58
2023-06-27T11:39:13.411Z,1589.64
2023-06-27T11:40:13.272Z,1589.18
2023-06-27T11:41:13.333Z,1590.65
2023-06-27T11:42:13.137Z,1590.56
2023-06-27T11:43:13.376Z,1590.90
2023-06-27T11:44:13.399Z,1594.20
2023-06-27T11:45:13.359Z,1592.79
2023-06-27T11:46:13.246Z,1592.41
2023-06-27T11:47:18.247Z,1592.32
2023-06-27T11:48:13.155Z,1589.95
2023-06-27T11:49:12.956Z,1591.16
2023-06-27T11:50:12.950Z,1593.00
2023-06-27T11:51:13.099Z,1592.30
2023-06-27T11:52:12.943Z,1592.19
2023-06-27T11:53:12.794Z,1593.76
2023-06-27T11:54:13.580Z,1594.69
2023-06-27T11:55:13.528Z,1593.99
2023-06-27T11:56:22.043Z,1593.98
2023-06-27T11:57:12.928Z,1594.27
2023-06-27T11:58:12.943Z,1592.50
2023-06-27T11:59:12.845Z,1590.60
2023-06-27T12:00:22.655Z,1591.26
2023-06-27T12:01:12.848Z,1590.41
2023-06-27T12:02:13.672Z,1591.06
2023-06-27T12:03:13.802Z,1589.63
2023-06-27T12:04:18.996Z,1588.73
2023-06-27T12:05:18.572Z,1587.63
2023-06-27T12:06:13.426Z,1589.51
2023-06-27T12:07:13.394Z,1587.63
2023-06-27T12:08:13.283Z,1588.03